Time;durP1;ratioP1;P1;durP2;ratioP2;P2;SDS_P1;SDS_P2;PMS_P1;PMS_P2;Temp;Humidity;BMP_temperature;BMP_pressure;BME280_temperature;BME280_humidity;BME280_pressure;Samples;Min_cycle;Max_cycle;Signal;HPM_P1;HPM_P2
2021/10/14 00:01:08;;;;;;;3.60;2.63;;;9.80;99.90;;;;;;5108345;28;20723;-71
2021/10/14 00:03:36;;;;;;;2.97;2.77;;;9.70;99.90;;;;;;5108595;28;20282;-72
2021/10/14 00:06:03;;;;;;;4.23;2.87;;;9.70;99.90;;;;;;5108840;28;20206;-72
2021/10/14 00:08:30;;;;;;;4.33;2.70;;;9.70;99.90;;;;;;5108132;28;20255;-72
2021/10/14 00:10:56;;;;;;;3.53;2.77;;;9.70;99.90;;;;;;5107884;28;20202;-71
2021/10/14 00:13:23;;;;;;;3.87;2.63;;;9.80;99.90;;;;;;5108505;28;20206;-71
2021/10/14 00:15:49;;;;;;;4.97;3.20;;;9.70;99.90;;;;;;5108333;28;20222;-71
2021/10/14 00:18:16;;;;;;;4.40;3.00;;;9.70;99.90;;;;;;5108431;28;20206;-70
2021/10/14 00:20:44;;;;;;;4.97;3.10;;;9.60;99.90;;;;;;5108405;28;20210;-70
2021/10/14 00:23:11;;;;;;;4.87;3.50;;;9.60;99.90;;;;;;5108378;28;20198;-71
2021/10/14 00:25:39;;;;;;;3.67;2.90;;;9.70;99.90;;;;;;5108064;28;21004;-71
2021/10/14 00:28:06;;;;;;;6.47;3.23;;;9.70;99.90;;;;;;5108225;28;20202;-71
2021/10/14 00:30:32;;;;;;;3.43;3.13;;;9.70;99.90;;;;;;5108373;28;20210;-71
2021/10/14 00:32:59;;;;;;;3.40;3.10;;;9.70;99.90;;;;;;5108328;28;20199;-71
2021/10/14 00:35:26;;;;;;;4.40;3.30;;;9.70;99.90;;;;;;5108219;28;20242;-71
2021/10/14 00:37:54;;;;;;;3.37;3.10;;;9.70;99.90;;;;;;5108351;28;20616;-71
2021/10/14 00:40:23;;;;;;;4.40;3.27;;;9.70;99.90;;;;;;5108226;28;20278;-71
2021/10/14 00:42:49;;;;;;;3.47;3.00;;;9.60;99.90;;;;;;5108393;28;20263;-70
2021/10/14 00:45:16;;;;;;;3.40;3.10;;;9.70;99.90;;;;;;5108139;28;20778;-71
2021/10/14 00:47:42;;;;;;;4.17;3.57;;;9.70;99.90;;;;;;5108241;28;20518;-72
2021/10/14 00:50:10;;;;;;;4.67;3.33;;;9.70;99.90;;;;;;5108034;28;20210;-72
2021/10/14 00:52:40;;;;;;;5.00;3.10;;;9.70;99.90;;;;;;5107682;28;20656;-72
2021/10/14 00:55:11;;;;;;;3.33;3.00;;;9.80;99.90;;;;;;5107947;28;20206;-71
2021/10/14 00:57:37;;;;;;;5.20;3.57;;;9.80;99.90;;;;;;5107599;28;20311;-72
2021/10/14 01:00:06;;;;;;;7.43;3.20;;;9.90;99.90;;;;;;5107888;28;20291;-72
2021/10/14 01:02:32;;;;;;;4.87;3.50;;;9.90;99.90;;;;;;5107953;28;20207;-72
2021/10/14 01:04:59;;;;;;;4.77;3.70;;;9.80;99.90;;;;;;5107969;28;20252;-72
2021/10/14 01:07:26;;;;;;;3.60;3.30;;;9.80;99.90;;;;;;5110180;28;20206;-72
2021/10/14 01:09:52;;;;;;;5.00;3.37;;;9.80;99.90;;;;;;5111261;28;20613;-72
2021/10/14 01:12:21;;;;;;;5.27;3.53;;;9.80;99.90;;;;;;5111360;28;20259;-72
2021/10/14 01:14:48;;;;;;;5.30;3.70;;;9.70;99.90;;;;;;5111445;28;20210;-72
2021/10/14 01:17:14;;;;;;;4.80;3.63;;;9.70;99.90;;;;;;5111475;28;20234;-71
2021/10/14 01:19:43;;;;;;;4.77;3.50;;;9.70;99.90;;;;;;5111044;28;20544;-72
2021/10/14 01:22:10;;;;;;;4.73;3.87;;;9.70;99.90;;;;;;5111012;28;20773;-71
2021/10/14 01:24:37;;;;;;;7.77;3.17;;;9.70;99.90;;;;;;5110762;28;20202;-70
2021/10/14 01:27:04;;;;;;;5.27;3.33;;;9.70;99.90;;;;;;5110586;28;20290;-71
2021/10/14 01:29:31;;;;;;;3.73;3.40;;;9.70;99.90;;;;;;5109597;28;20225;-71
2021/10/14 01:31:58;;;;;;;5.10;3.57;;;9.60;99.90;;;;;;5111293;28;20282;-71
2021/10/14 01:34:25;;;;;;;5.23;3.80;;;9.70;99.90;;;;;;5111085;28;20270;-71
2021/10/14 01:36:53;;;;;;;6.50;4.00;;;9.60;99.90;;;;;;5110817;28;20222;-71
2021/10/14 01:39:19;;;;;;;4.37;3.60;;;9.70;99.90;;;;;;5110526;28;20668;-71
2021/10/14 01:41:47;;;;;;;3.80;3.40;;;9.60;99.90;;;;;;5110942;28;20241;-71
2021/10/14 01:44:15;;;;;;;4.97;3.87;;;9.70;99.90;;;;;;5110711;28;20617;-71
2021/10/14 01:46:42;;;;;;;5.47;4.00;;;9.70;99.90;;;;;;5110396;28;20713;-71
2021/10/14 01:49:08;;;;;;;4.80;4.23;;;9.70;99.90;;;;;;5111030;28;20206;-70
2021/10/14 01:51:35;;;;;;;5.77;3.83;;;9.60;99.90;;;;;;5109869;28;20214;-70
2021/10/14 01:54:03;;;;;;;5.10;4.60;;;9.60;99.90;;;;;;5110338;28;20237;-70
2021/10/14 01:56:30;;;;;;;5.77;3.97;;;9.60;99.90;;;;;;5110478;28;20271;-71
2021/10/14 01:59:06;;;;;;;5.97;3.90;;;9.70;99.90;;;;;;5110706;28;20209;-71
2021/10/14 02:01:33;;;;;;;6.27;4.17;;;9.70;99.90;;;;;;5110615;28;20208;-70
2021/10/14 02:03:59;;;;;;;5.33;4.53;;;9.70;99.90;;;;;;5110535;28;20353;-71
2021/10/14 02:06:26;;;;;;;5.27;4.60;;;9.60;99.90;;;;;;5110278;28;20259;-71
2021/10/14 02:08:53;;;;;;;7.57;4.47;;;9.60;99.90;;;;;;5110517;28;20659;-71
2021/10/14 02:11:21;;;;;;;4.50;4.10;;;9.60;99.90;;;;;;5110367;28;20279;-71
2021/10/14 02:13:48;;;;;;;8.93;5.50;;;9.60;99.90;;;;;;5110295;28;20684;-71
2021/10/14 02:16:14;;;;;;;7.13;4.90;;;9.60;99.90;;;;;;5110295;28;20234;-71
2021/10/14 02:18:41;;;;;;;6.33;4.47;;;9.60;99.90;;;;;;5108800;28;20224;-71
2021/10/14 02:21:07;;;;;;;7.20;4.10;;;9.70;99.90;;;;;;5110169;28;20252;-70
2021/10/14 02:23:34;;;;;;;4.80;4.40;;;9.70;99.90;;;;;;5109790;28;20210;-70
2021/10/14 02:26:01;;;;;;;7.43;4.93;;;9.70;99.90;;;;;;5110065;28;20275;-72
2021/10/14 02:28:28;;;;;;;5.53;4.07;;;9.70;99.90;;;;;;5109941;28;20549;-71
2021/10/14 02:30:55;;;;;;;5.27;4.43;;;9.60;99.90;;;;;;5109993;28;20255;-70
2021/10/14 02:33:22;;;;;;;4.83;4.30;;;9.60;99.90;;;;;;5110121;28;20237;-71
2021/10/14 02:35:48;;;;;;;7.17;4.80;;;9.50;99.90;;;;;;5109857;28;20271;-70
2021/10/14 02:38:15;;;;;;;4.87;3.73;;;9.50;99.90;;;;;;5109951;28;20234;-71
2021/10/14 02:40:41;;;;;;;6.13;3.63;;;9.50;99.90;;;;;;5109687;28;20291;-71
2021/10/14 02:43:08;;;;;;;4.97;3.13;;;9.50;99.90;;;;;;5107513;28;20284;-71
2021/10/14 02:45:36;;;;;;;4.90;3.37;;;9.50;99.90;;;;;;5109731;28;20688;-71
2021/10/14 02:48:03;;;;;;;3.50;2.70;;;9.40;99.90;;;;;;5110030;28;20257;-71
2021/10/14 02:50:29;;;;;;;3.87;3.13;;;9.40;99.90;;;;;;5109492;28;20198;-71
2021/10/14 02:52:56;;;;;;;3.13;2.93;;;9.30;99.90;;;;;;5108942;28;20291;-71
2021/10/14 02:55:23;;;;;;;3.27;2.97;;;9.30;99.90;;;;;;5108251;28;20205;-72
2021/10/14 02:57:50;;;;;;;3.50;2.67;;;9.30;99.90;;;;;;5111389;27;20268;-70
2021/10/14 03:00:16;;;;;;;4.03;2.70;;;9.30;99.90;;;;;;5118061;27;20731;-70
2021/10/14 03:02:44;;;;;;;3.47;2.80;;;9.20;99.90;;;;;;5109363;28;20206;-71
2021/10/14 03:05:11;;;;;;;3.43;2.60;;;9.20;99.90;;;;;;5108967;28;20709;-70
2021/10/14 03:07:37;;;;;;;3.03;2.80;;;9.20;99.90;;;;;;5109179;28;20252;-70
2021/10/14 03:10:05;;;;;;;5.63;3.20;;;9.20;99.90;;;;;;5108019;28;20237;-70
2021/10/14 03:12:31;;;;;;;3.53;3.17;;;9.30;99.90;;;;;;5104530;28;20551;-70
2021/10/14 03:14:59;;;;;;;4.97;3.60;;;9.30;99.90;;;;;;5085656;28;20202;-70
2021/10/14 03:17:26;;;;;;;4.23;3.83;;;9.30;99.90;;;;;;5085303;28;20233;-70
2021/10/14 03:19:54;;;;;;;4.73;4.37;;;9.30;99.90;;;;;;5085662;28;20207;-67
2021/10/14 03:22:22;;;;;;;8.43;4.50;;;9.30;99.90;;;;;;5085555;28;20753;-68
2021/10/14 03:24:48;;;;;;;5.53;4.43;;;9.40;99.90;;;;;;5085504;28;20284;-68
2021/10/14 03:27:15;;;;;;;5.07;4.30;;;9.40;99.90;;;;;;5085254;28;20625;-71
2021/10/14 03:29:42;;;;;;;4.03;3.73;;;9.40;99.90;;;;;;5085257;28;20238;-70
2021/10/14 03:32:08;;;;;;;4.37;4.03;;;9.40;99.90;;;;;;5085402;28;20260;-71
2021/10/14 03:34:35;;;;;;;4.17;3.77;;;9.40;99.90;;;;;;5084538;28;20203;-71
2021/10/14 03:37:03;;;;;;;5.00;4.50;;;9.30;99.90;;;;;;5085503;28;20226;-71
2021/10/14 03:39:30;;;;;;;4.20;3.67;;;9.30;99.90;;;;;;5085507;28;20247;-70
2021/10/14 03:41:57;;;;;;;4.83;3.63;;;9.30;99.90;;;;;;5085347;28;20211;-70
2021/10/14 03:44:24;;;;;;;4.77;4.03;;;9.30;99.90;;;;;;5085354;28;20207;-71
2021/10/14 03:46:50;;;;;;;3.87;3.57;;;9.30;99.90;;;;;;5085352;28;20231;-71
2021/10/14 03:49:17;;;;;;;4.13;3.73;;;9.20;99.90;;;;;;5086001;28;20203;-71
2021/10/14 03:51:44;;;;;;;4.47;3.97;;;9.20;99.90;;;;;;5085616;28;20206;-71
2021/10/14 03:54:12;;;;;;;3.70;3.30;;;9.20;99.90;;;;;;5085194;28;20276;-70
2021/10/14 03:56:39;;;;;;;4.90;3.30;;;9.20;99.90;;;;;;5085154;28;20259;-71
2021/10/14 03:59:05;;;;;;;3.87;3.50;;;9.20;99.90;;;;;;5090132;28;20246;-71
2021/10/14 04:01:32;;;;;;;4.10;3.70;;;9.20;99.90;;;;;;5100375;28;20206;-70
2021/10/14 04:03:59;;;;;;;3.90;3.60;;;9.30;99.90;;;;;;5094086;28;20298;-70
2021/10/14 04:06:25;;;;;;;4.30;3.20;;;9.30;99.90;;;;;;5100214;28;20409;-70
2021/10/14 04:08:52;;;;;;;4.13;3.47;;;9.20;99.90;;;;;;5095524;28;20697;-70
2021/10/14 04:11:20;;;;;;;4.13;3.40;;;9.20;99.90;;;;;;5100678;28;20247;-70
2021/10/14 04:13:49;;;;;;;3.50;3.20;;;9.30;99.90;;;;;;5101383;28;20194;-70
2021/10/14 04:16:16;;;;;;;3.77;3.47;;;9.30;99.90;;;;;;5099162;28;20202;-70
2021/10/14 04:18:43;;;;;;;3.73;3.43;;;9.30;99.90;;;;;;5098958;28;20218;-70
2021/10/14 04:21:09;;;;;;;3.10;2.90;;;9.30;99.90;;;;;;5093427;28;20296;-69
2021/10/14 04:23:36;;;;;;;3.30;3.10;;;9.30;99.90;;;;;;5094376;28;20237;-70
2021/10/14 04:26:03;;;;;;;4.17;3.07;;;9.20;99.90;;;;;;5101253;28;20225;-70
2021/10/14 04:28:31;;;;;;;3.10;2.90;;;9.20;99.90;;;;;;5095745;28;20225;-70
2021/10/14 04:30:58;;;;;;;3.40;3.20;;;9.20;99.90;;;;;;5100041;28;20222;-70
2021/10/14 04:33:25;;;;;;;3.07;2.87;;;9.20;99.90;;;;;;5092693;28;20210;-70
2021/10/14 04:35:52;;;;;;;3.50;2.83;;;9.20;99.90;;;;;;5100859;28;20664;-70
2021/10/14 04:38:20;;;;;;;3.10;2.80;;;9.20;99.90;;;;;;5096635;28;20287;-70
2021/10/14 04:40:47;;;;;;;3.10;2.90;;;9.20;99.90;;;;;;5094639;28;20672;-70
2021/10/14 04:43:14;;;;;;;3.27;3.07;;;9.30;99.90;;;;;;5102281;28;20210;-70
2021/10/14 04:45:42;;;;;;;3.40;3.20;;;9.30;99.90;;;;;;5102076;28;20191;-70
2021/10/14 04:48:08;;;;;;;3.30;3.10;;;9.30;99.90;;;;;;5099484;28;20234;-70
2021/10/14 04:50:35;;;;;;;3.57;3.27;;;9.30;99.90;;;;;;5100043;28;20223;-70
2021/10/14 04:53:01;;;;;;;3.23;3.03;;;9.30;99.90;;;;;;5098631;28;20689;-70
2021/10/14 04:55:28;;;;;;;3.83;3.53;;;9.30;99.90;;;;;;5099229;28;20718;-70
2021/10/14 04:57:54;;;;;;;3.60;3.40;;;9.30;99.90;;;;;;5102050;28;20283;-70
2021/10/14 05:00:21;;;;;;;3.60;3.40;;;9.30;99.90;;;;;;5102639;28;20234;-70
2021/10/14 05:02:49;;;;;;;4.10;3.80;;;9.30;99.90;;;;;;5098659;28;20215;-70
2021/10/14 05:05:16;;;;;;;3.97;3.77;;;9.30;99.90;;;;;;5099337;28;20203;-70
2021/10/14 05:07:42;;;;;;;4.00;3.70;;;9.40;99.90;;;;;;5101958;28;20203;-70
2021/10/14 05:10:09;;;;;;;4.10;3.80;;;9.40;99.90;;;;;;5099039;28;20228;-70
2021/10/14 05:12:36;;;;;;;5.13;4.50;;;9.30;99.90;;;;;;5098958;28;20231;-70
2021/10/14 05:15:06;;;;;;;4.00;3.70;;;9.30;99.90;;;;;;5094288;28;20230;-70
2021/10/14 05:17:33;;;;;;;12.30;11.13;;;9.30;99.90;;;;;;5090124;28;20219;-72
2021/10/14 05:20:02;;;;;;;5.40;5.00;;;9.40;99.90;;;;;;5090030;28;20230;-72
2021/10/14 05:22:28;;;;;;;3.80;3.60;;;9.50;99.90;;;;;;5090548;28;20210;-70
2021/10/14 05:24:55;;;;;;;3.20;3.00;;;9.50;99.90;;;;;;5101334;28;20267;-70
2021/10/14 05:27:22;;;;;;;3.67;3.47;;;9.40;99.90;;;;;;5106923;28;20261;-70
2021/10/14 05:29:48;;;;;;;4.17;3.83;;;9.40;99.90;;;;;;5107386;28;20793;-70
2021/10/14 05:32:15;;;;;;;3.60;3.33;;;9.40;99.90;;;;;;5094026;28;20203;-70
2021/10/14 05:34:42;;;;;;;4.23;3.90;;;9.40;99.90;;;;;;5100793;28;20240;-70
2021/10/14 05:37:10;;;;;;;4.10;3.90;;;9.30;99.90;;;;;;5098320;28;20617;-70
2021/10/14 05:39:37;;;;;;;4.10;3.80;;;9.40;99.90;;;;;;5098308;28;20203;-70
2021/10/14 05:42:04;;;;;;;4.10;3.80;;;9.40;99.90;;;;;;5098151;28;20209;-70
2021/10/14 05:44:30;;;;;;;4.20;3.90;;;9.40;99.90;;;;;;5098733;28;20249;-70
2021/10/14 05:46:57;;;;;;;4.60;4.20;;;9.30;99.90;;;;;;5098994;28;20218;-70
2021/10/14 05:49:23;;;;;;;4.53;4.10;;;9.40;99.90;;;;;;5097492;28;20289;-70
2021/10/14 05:51:50;;;;;;;4.43;4.03;;;9.40;99.90;;;;;;5099514;28;20195;-70
2021/10/14 05:54:18;;;;;;;4.60;4.27;;;9.40;99.90;;;;;;5099120;28;20692;-70
2021/10/14 05:56:45;;;;;;;4.67;4.27;;;9.40;99.90;;;;;;5095130;28;20251;-70
2021/10/14 05:59:11;;;;;;;4.93;4.53;;;9.40;99.90;;;;;;5096889;28;20708;-70
2021/10/14 06:01:38;;;;;;;4.90;4.50;;;9.50;99.90;;;;;;5098755;28;20275;-70
2021/10/14 06:04:05;;;;;;;5.10;4.70;;;9.50;99.90;;;;;;5100049;28;20335;-70
2021/10/14 06:06:31;;;;;;;5.07;4.67;;;9.50;99.90;;;;;;5099480;28;20271;-70
2021/10/14 06:08:58;;;;;;;5.40;5.00;;;9.50;99.90;;;;;;5098764;28;21043;-70
2021/10/14 06:11:26;;;;;;;5.93;5.43;;;9.50;99.90;;;;;;5097906;28;20241;-70
2021/10/14 06:13:53;;;;;;;8.77;6.10;;;9.60;99.90;;;;;;5100773;28;20365;-70
2021/10/14 06:16:19;;;;;;;6.27;5.77;;;9.60;99.90;;;;;;5098195;28;20260;-70
2021/10/14 06:18:46;;;;;;;5.50;5.00;;;9.60;99.90;;;;;;5099738;28;20249;-70
2021/10/14 06:21:13;;;;;;;5.90;5.30;;;9.60;99.90;;;;;;5099675;28;20275;-70
2021/10/14 06:23:39;;;;;;;6.33;5.40;;;9.60;99.90;;;;;;5099146;28;20378;-70
2021/10/14 06:26:06;;;;;;;6.43;5.93;;;9.60;99.90;;;;;;5096795;28;20194;-70
2021/10/14 06:28:34;;;;;;;6.60;6.00;;;9.70;99.90;;;;;;5097984;28;20227;-70
2021/10/14 06:31:00;;;;;;;7.67;5.73;;;9.60;99.90;;;;;;5100112;28;20199;-70
2021/10/14 06:33:27;;;;;;;7.53;6.33;;;9.60;99.90;;;;;;5096552;28;20675;-70
2021/10/14 06:35:54;;;;;;;6.33;5.73;;;9.70;99.90;;;;;;5100825;28;20255;-70
2021/10/14 06:38:20;;;;;;;7.27;6.67;;;9.70;99.90;;;;;;5100237;28;20279;-70
2021/10/14 06:40:47;;;;;;;7.80;6.60;;;9.70;99.90;;;;;;5096732;28;20226;-70
2021/10/14 06:43:13;;;;;;;7.37;6.67;;;9.70;99.90;;;;;;5096294;28;20202;-70
2021/10/14 06:45:42;;;;;;;7.17;6.43;;;9.80;99.90;;;;;;5098507;28;20227;-71
2021/10/14 06:48:09;;;;;;;9.10;6.97;;;9.80;99.90;;;;;;5096857;28;20206;-70
2021/10/14 06:50:35;;;;;;;14.00;12.70;;;9.80;99.90;;;;;;5099619;28;20202;-70
2021/10/14 06:53:05;;;;;;;10.53;8.90;;;9.80;99.90;;;;;;5097042;28;20190;-70
2021/10/14 06:55:31;;;;;;;9.07;7.63;;;9.90;99.90;;;;;;5093587;28;20202;-70
2021/10/14 06:57:58;;;;;;;10.50;8.40;;;9.90;99.90;;;;;;5104758;28;20257;-70
2021/10/14 07:00:24;;;;;;;9.40;8.40;;;9.90;99.90;;;;;;5106020;28;20275;-70
2021/10/14 07:02:52;;;;;;;11.13;8.17;;;9.90;99.90;;;;;;5108460;28;20229;-70
2021/10/14 07:05:19;;;;;;;10.17;8.47;;;9.90;99.90;;;;;;5107310;28;20237;-70
2021/10/14 07:07:46;;;;;;;13.20;11.27;;;9.90;99.90;;;;;;5107800;28;20214;-70
2021/10/14 07:10:15;;;;;;;18.83;15.70;;;9.90;99.90;;;;;;5108123;28;20198;-70
2021/10/14 07:12:43;;;;;;;11.83;8.77;;;9.90;99.90;;;;;;5108013;28;20275;-70
2021/10/14 07:15:10;;;;;;;11.23;8.67;;;9.90;99.90;;;;;;5108775;28;20221;-70
2021/10/14 07:17:55;;;;;;;;;;;;;;;;;;;;;
2021/10/14 07:20:23;;;;;;;12.37;9.40;;;10.00;99.90;;;;;;5096807;28;20202;-70
2021/10/14 07:22:50;;;;;;;13.13;9.33;;;10.00;99.90;;;;;;5096809;28;21032;-70
2021/10/14 07:25:17;;;;;;;14.83;9.43;;;10.00;99.90;;;;;;5101284;28;20213;-70
2021/10/14 07:27:44;;;;;;;13.03;9.83;;;10.00;99.90;;;;;;5097557;28;20248;-70
2021/10/14 07:30:11;;;;;;;13.43;9.70;;;10.00;99.90;;;;;;5102454;28;20206;-70
2021/10/14 07:32:38;;;;;;;11.00;8.97;;;10.00;99.90;;;;;;5099387;28;20207;-70
2021/10/14 07:35:07;;;;;;;15.83;9.87;;;10.00;99.90;;;;;;5094287;28;20206;-70
2021/10/14 07:37:35;;;;;;;12.13;9.43;;;10.10;99.90;;;;;;5096206;28;20251;-70
2021/10/14 07:40:02;;;;;;;14.03;10.37;;;10.10;99.90;;;;;;5089378;28;20264;-69
2021/10/14 07:42:28;;;;;;;16.00;10.37;;;10.10;99.90;;;;;;5087424;28;20248;-69
2021/10/14 07:44:55;;;;;;;16.47;10.47;;;10.10;99.90;;;;;;5099028;28;20195;-69
2021/10/14 07:47:22;;;;;;;13.33;10.53;;;10.20;99.90;;;;;;5096151;28;20202;-69
2021/10/14 07:49:48;;;;;;;14.30;10.27;;;10.20;99.90;;;;;;5093710;28;20210;-69
2021/10/14 07:52:15;;;;;;;13.60;10.80;;;10.30;99.90;;;;;;5098707;28;20716;-69
2021/10/14 07:54:43;;;;;;;19.43;11.83;;;10.30;99.90;;;;;;5100405;28;20240;-69
2021/10/14 07:57:10;;;;;;;15.90;11.23;;;10.30;99.90;;;;;;5098452;28;20274;-69
2021/10/14 07:59:36;;;;;;;19.63;11.80;;;10.30;99.90;;;;;;5098293;28;20265;-70
2021/10/14 08:02:03;;;;;;;18.37;11.47;;;10.40;99.90;;;;;;5105500;28;20222;-70
2021/10/14 08:04:30;;;;;;;18.03;12.47;;;10.40;99.90;;;;;;5098716;28;20251;-69
2021/10/14 08:06:56;;;;;;;18.40;11.73;;;10.40;99.90;;;;;;5095128;28;20199;-70
2021/10/14 08:09:23;;;;;;;18.97;11.37;;;10.40;99.90;;;;;;5094343;28;20198;-69
2021/10/14 08:11:51;;;;;;;17.70;11.07;;;10.40;99.90;;;;;;5104751;28;20202;-70
2021/10/14 08:14:17;;;;;;;18.00;11.00;;;10.40;99.90;;;;;;5093339;28;20203;-70
2021/10/14 08:16:44;;;;;;;14.40;10.50;;;10.40;99.90;;;;;;5097170;28;20610;-70
2021/10/14 08:19:10;;;;;;;15.10;11.10;;;10.50;99.90;;;;;;5108102;27;20259;-70
2021/10/14 08:21:37;;;;;;;17.60;10.33;;;10.50;99.90;;;;;;5120820;27;20259;-70
2021/10/14 08:24:04;;;;;;;15.63;11.23;;;10.50;99.90;;;;;;5112258;28;20222;-70
2021/10/14 08:26:31;;;;;;;15.20;10.80;;;10.60;99.90;;;;;;5111925;28;20774;-70
2021/10/14 08:28:59;;;;;;;14.03;10.27;;;10.60;99.90;;;;;;5112037;28;20198;-72
2021/10/14 08:31:25;;;;;;;12.70;9.87;;;10.60;99.90;;;;;;5111866;28;20271;-70
2021/10/14 08:33:52;;;;;;;12.67;9.47;;;10.60;99.90;;;;;;5112044;28;20204;-70
2021/10/14 08:36:19;;;;;;;15.33;9.70;;;10.60;99.90;;;;;;5111907;28;20263;-71
2021/10/14 08:38:47;;;;;;;14.80;9.83;;;10.60;99.90;;;;;;5112024;28;20257;-70
2021/10/14 08:41:18;;;;;;;11.77;9.40;;;10.70;99.90;;;;;;5111557;27;21099;-70
2021/10/14 08:43:46;;;;;;;12.80;9.43;;;10.70;99.90;;;;;;5099071;28;20198;-70
2021/10/14 08:46:15;;;;;;;9.90;8.40;;;10.70;99.90;;;;;;5099426;28;20302;-70
2021/10/14 08:48:42;;;;;;;10.63;8.60;;;10.80;99.90;;;;;;5097911;28;20207;-70
2021/10/14 08:51:09;;;;;;;11.30;8.53;;;10.80;99.90;;;;;;5099350;28;20203;-70
2021/10/14 08:53:37;;;;;;;11.13;8.20;;;10.80;99.90;;;;;;5099284;28;20545;-70
2021/10/14 08:56:04;;;;;;;10.70;8.63;;;10.90;99.90;;;;;;5099037;28;20227;-70
2021/10/14 08:58:30;;;;;;;14.50;11.07;;;10.90;99.90;;;;;;5097559;27;20708;-70
2021/10/14 09:01:09;;;;;;;11.27;9.97;;;11.00;99.90;;;;;;5090193;28;20234;-70
2021/10/14 09:03:41;;;;;;;11.23;8.57;;;11.00;99.90;;;;;;5095668;28;20722;-70
2021/10/14 09:06:09;;;;;;;11.43;8.97;;;11.00;99.90;;;;;;5099303;28;20198;-70
2021/10/14 09:08:39;;;;;;;10.70;9.60;;;11.00;99.90;;;;;;5101046;28;20198;-70
2021/10/14 09:11:16;;;;;;;11.47;8.83;;;11.00;99.90;;;;;;5100317;28;20195;-70
2021/10/14 09:13:48;;;;;;;11.80;9.43;;;11.00;99.90;;;;;;5099354;28;20557;-70
2021/10/14 09:16:23;;;;;;;13.33;9.57;;;11.00;99.90;;;;;;5098544;28;20762;-70
2021/10/14 09:18:52;;;;;;;13.90;11.03;;;10.90;99.90;;;;;;5098831;28;20286;-70
2021/10/14 09:21:24;;;;;;;11.60;10.40;;;11.00;99.90;;;;;;5097841;28;20234;-70
2021/10/14 09:23:50;;;;;;;13.87;11.23;;;11.00;99.90;;;;;;5100766;28;20264;-70
2021/10/14 09:26:30;;;;;;;11.33;10.13;;;11.00;99.90;;;;;;5098722;28;20264;-70
2021/10/14 09:29:08;;;;;;;12.87;10.10;;;11.00;99.90;;;;;;5100180;28;20239;-70
2021/10/14 09:31:53;;;;;;;10.63;9.03;;;11.00;99.90;;;;;;5101044;28;20225;-70
2021/10/14 09:34:36;;;;;;;10.53;9.43;;;11.00;99.90;;;;;;5098973;28;20237;-70
2021/10/14 09:37:05;;;;;;;13.67;10.33;;;11.00;99.90;;;;;;5099475;28;20188;-70
2021/10/14 09:39:33;;;;;;;13.30;10.07;;;11.00;99.90;;;;;;5098418;28;20237;-70
2021/10/14 09:41:59;;;;;;;12.23;10.20;;;11.10;99.90;;;;;;5100444;28;20210;-70
2021/10/14 09:44:26;;;;;;;11.83;9.17;;;11.10;99.90;;;;;;5099684;28;20890;-70
2021/10/14 09:46:54;;;;;;;12.83;9.50;;;11.10;99.90;;;;;;5107479;28;20198;-70
2021/10/14 09:49:23;;;;;;;10.53;8.93;;;11.10;99.90;;;;;;5110711;28;20202;-70
2021/10/14 09:51:52;;;;;;;11.13;9.17;;;11.20;99.90;;;;;;5109874;28;20767;-70
2021/10/14 09:54:19;;;;;;;9.33;8.40;;;11.20;99.90;;;;;;5098235;27;20234;-70
2021/10/14 09:56:46;;;;;;;8.73;7.83;;;11.20;99.90;;;;;;5098310;28;20268;-70
2021/10/14 09:59:12;;;;;;;9.60;7.47;;;11.20;99.90;;;;;;5098177;28;20226;-70
2021/10/14 10:01:40;;;;;;;8.03;7.23;;;11.20;99.90;;;;;;5098328;28;20218;-70
2021/10/14 10:04:07;;;;;;;8.00;7.20;;;11.20;99.90;;;;;;5100306;28;20217;-70
2021/10/14 10:06:35;;;;;;;7.40;6.70;;;11.30;99.90;;;;;;5100085;28;20214;-70
2021/10/14 10:09:07;;;;;;;6.80;6.20;;;11.40;99.90;;;;;;5097668;28;20206;-70
2021/10/14 10:11:39;;;;;;;6.10;5.50;;;11.40;99.90;;;;;;5098520;28;20276;-70
2021/10/14 10:14:05;;;;;;;6.07;5.57;;;11.50;99.90;;;;;;5096558;28;20713;-70
2021/10/14 10:16:32;;;;;;;5.73;5.27;;;11.50;99.90;;;;;;5098873;28;20256;-70
2021/10/14 10:19:00;;;;;;;5.20;4.80;;;11.50;99.90;;;;;;5098225;28;20261;-70
2021/10/14 10:21:41;;;;;;;4.57;4.27;;;11.50;99.90;;;;;;5099966;28;20203;-70
2021/10/14 10:24:27;;;;;;;4.13;3.80;;;11.50;99.90;;;;;;5097524;28;20228;-70
2021/10/14 10:26:55;;;;;;;3.50;3.20;;;11.60;99.90;;;;;;5098940;28;20246;-70
2021/10/14 10:29:45;;;;;;;3.17;2.97;;;11.60;99.90;;;;;;5097532;28;20688;-71
2021/10/14 10:32:22;;;;;;;3.07;2.87;;;11.60;99.90;;;;;;5093850;28;20186;-71
2021/10/14 10:35:02;;;;;;;7.37;6.87;;;11.60;99.90;;;;;;5095409;28;20634;-71
2021/10/14 10:37:37;;;;;;;2.40;2.30;;;11.60;99.90;;;;;;5098007;28;20194;-71
2021/10/14 10:40:32;;;;;;;2.00;1.90;;;11.60;99.90;;;;;;5096398;28;20214;-71
2021/10/14 10:43:05;;;;;;;2.27;2.00;;;11.60;99.90;;;;;;5096416;28;20190;-71
2021/10/14 10:45:44;;;;;;;2.00;1.90;;;11.60;99.90;;;;;;5095329;28;20227;-71
2021/10/14 10:48:11;;;;;;;2.00;1.90;;;11.60;99.90;;;;;;5096843;28;20211;-71
2021/10/14 10:50:59;;;;;;;1.80;1.70;;;11.60;99.90;;;;;;5099164;28;20209;-71
2021/10/14 10:53:38;;;;;;;1.90;1.80;;;11.60;99.90;;;;;;5090425;28;20336;-71
2021/10/14 10:56:07;;;;;;;1.90;1.80;;;11.60;99.90;;;;;;5099570;28;20247;-70
2021/10/14 10:58:46;;;;;;;2.23;2.03;;;11.60;99.90;;;;;;5097651;28;20202;-71
2021/10/14 11:01:22;;;;;;;2.50;2.40;;;11.60;99.90;;;;;;5078073;28;20631;-71
2021/10/14 11:03:58;;;;;;;3.00;2.80;;;11.70;99.90;;;;;;5074570;28;20199;-71
2021/10/14 11:06:26;;;;;;;4.10;3.80;;;11.60;99.90;;;;;;5075744;28;20191;-71
2021/10/14 11:08:54;;;;;;;4.03;3.73;;;11.60;99.90;;;;;;5076126;28;20296;-71
2021/10/14 11:11:22;;;;;;;4.17;3.63;;;11.70;99.90;;;;;;5072754;28;20204;-71
2021/10/14 11:13:51;;;;;;;4.00;3.67;;;11.70;99.90;;;;;;5074332;28;20195;-71
2021/10/14 11:16:19;;;;;;;5.03;4.20;;;11.70;99.90;;;;;;5074150;28;20605;-71
2021/10/14 11:18:49;;;;;;;4.17;3.87;;;11.70;99.90;;;;;;5073331;28;20203;-71
2021/10/14 11:21:18;;;;;;;6.83;5.10;;;11.70;99.90;;;;;;5076022;28;20680;-71
2021/10/14 11:23:46;;;;;;;6.77;4.83;;;11.70;99.90;;;;;;5072304;28;20226;-71
2021/10/14 11:26:15;;;;;;;8.10;5.67;;;11.70;99.90;;;;;;5071182;28;20595;-71
2021/10/14 11:28:58;;;;;;;8.03;6.53;;;11.70;99.90;;;;;;5075459;28;20202;-71
2021/10/14 11:31:33;;;;;;;6.57;5.57;;;11.70;99.90;;;;;;5065870;28;20203;-71
2021/10/14 11:34:15;;;;;;;10.73;7.17;;;11.70;99.90;;;;;;5064580;28;20191;-71
2021/10/14 11:36:50;;;;;;;11.03;7.27;;;11.70;99.90;;;;;;5074719;28;20226;-70
2021/10/14 11:39:18;;;;;;;10.60;8.17;;;11.70;99.90;;;;;;5083872;28;20625;-70
2021/10/14 11:41:45;;;;;;;13.20;7.97;;;11.80;99.90;;;;;;5077713;28;20203;-70
2021/10/14 11:44:12;;;;;;;10.90;7.93;;;11.70;99.90;;;;;;5065189;28;20228;-71
2021/10/14 11:46:40;;;;;;;11.73;7.77;;;11.70;99.90;;;;;;5069356;28;20765;-71
2021/10/14 11:49:11;;;;;;;11.83;8.30;;;11.80;99.90;;;;;;5078528;28;20707;-71
2021/10/14 11:51:39;;;;;;;10.73;8.70;;;11.80;99.90;;;;;;5072904;28;20246;-70
2021/10/14 11:54:07;;;;;;;15.60;10.10;;;11.80;99.90;;;;;;5065846;28;20252;-71
2021/10/14 11:56:42;;;;;;;16.70;9.67;;;11.80;99.90;;;;;;5065070;28;20235;-71
2021/10/14 11:59:09;;;;;;;15.03;9.97;;;11.80;99.90;;;;;;5075812;28;20301;-71
2021/10/14 12:01:45;;;;;;;12.77;9.90;;;11.90;99.90;;;;;;5075856;28;20218;-72
2021/10/14 12:04:15;;;;;;;16.33;11.03;;;11.90;99.90;;;;;;5068540;28;20241;-71
2021/10/14 12:06:42;;;;;;;14.33;10.50;;;11.90;99.90;;;;;;5077538;28;20203;-72
2021/10/14 12:09:10;;;;;;;16.50;11.43;;;11.90;99.90;;;;;;5080522;28;20341;-71
2021/10/14 12:11:36;;;;;;;17.90;11.40;;;12.00;99.90;;;;;;5064563;28;20677;-70
2021/10/14 12:14:04;;;;;;;18.77;11.10;;;12.00;99.90;;;;;;5055279;28;20285;-71
2021/10/14 12:16:32;;;;;;;17.27;11.80;;;12.00;99.90;;;;;;5049950;28;20200;-71
2021/10/14 12:19:14;;;;;;;21.33;12.33;;;12.10;99.90;;;;;;5050237;28;20629;-71
2021/10/14 12:21:43;;;;;;;22.97;11.77;;;12.20;99.90;;;;;;5049122;28;20234;-71
2021/10/14 12:24:13;;;;;;;25.67;13.20;;;12.20;99.90;;;;;;5048767;28;20204;-71
2021/10/14 12:26:43;;;;;;;21.17;11.50;;;12.30;99.90;;;;;;5049211;28;20228;-71
2021/10/14 12:29:27;;;;;;;19.80;11.53;;;12.40;99.90;;;;;;5048345;28;20663;-71
2021/10/14 12:32:19;;;;;;;16.37;11.57;;;12.40;99.90;;;;;;5049095;28;20196;-71
2021/10/14 12:34:54;;;;;;;19.50;11.53;;;12.50;99.90;;;;;;5038950;28;20204;-71
2021/10/14 12:37:27;;;;;;;18.17;11.10;;;12.60;99.90;;;;;;5050219;28;20196;-71
2021/10/14 12:40:14;;;;;;;16.17;10.27;;;12.70;99.90;;;;;;5050361;28;20285;-71
2021/10/14 12:45:33;;;;;;;15.63;10.90;;;12.80;99.90;;;;;;5049324;28;20725;-72
2021/10/14 12:48:15;;;;;;;16.43;10.13;;;12.80;99.90;;;;;;5050402;28;20289;-71
2021/10/14 12:50:59;;;;;;;14.20;9.60;;;12.80;99.90;;;;;;5050282;28;20200;-71
2021/10/14 12:53:36;;;;;;;12.40;9.10;;;12.80;99.90;;;;;;5050039;28;20295;-70
2021/10/14 12:56:03;;;;;;;13.23;9.03;;;12.80;99.90;;;;;;5050084;28;20200;-70
2021/10/14 12:58:30;;;;;;;13.57;8.37;;;12.80;99.90;;;;;;5050068;28;20627;-70